sensor_id;sensor_type;location;lat;lon;timestamp;P1;durP1;ratioP1;P2;durP2;ratioP2
13325;SDS011;6732;51.044;3.746;2023-01-15T00:01:38;5.43;;;1.87;;
13325;SDS011;6732;51.044;3.746;2023-01-15T00:04:05;4.83;;;1.70;;
13325;SDS011;6732;51.044;3.746;2023-01-15T00:06:36;6.27;;;1.70;;
13325;SDS011;6732;51.044;3.746;2023-01-15T00:09:03;5.53;;;1.70;;
13325;SDS011;6732;51.044;3.746;2023-01-15T00:11:30;6.27;;;1.80;;
13325;SDS011;6732;51.044;3.746;2023-01-15T00:13:56;6.03;;;1.80;;
13325;SDS011;6732;51.044;3.746;2023-01-15T00:16:22;6.63;;;2.20;;
13325;SDS011;6732;51.044;3.746;2023-01-15T00:18:50;7.00;;;1.80;;
13325;SDS011;6732;51.044;3.746;2023-01-15T00:21:17;9.13;;;1.90;;
13325;SDS011;6732;51.044;3.746;2023-01-15T00:23:45;5.70;;;1.80;;
13325;SDS011;6732;51.044;3.746;2023-01-15T00:26:30;6.27;;;1.93;;
13325;SDS011;6732;51.044;3.746;2023-01-15T00:29:16;6.47;;;2.03;;
13325;SDS011;6732;51.044;3.746;2023-01-15T00:31:43;8.00;;;2.00;;
13325;SDS011;6732;51.044;3.746;2023-01-15T00:34:16;5.67;;;1.77;;
13325;SDS011;6732;51.044;3.746;2023-01-15T00:36:42;7.73;;;1.63;;
13325;SDS011;6732;51.044;3.746;2023-01-15T00:39:08;8.47;;;1.80;;
13325;SDS011;6732;51.044;3.746;2023-01-15T00:41:34;7.13;;;2.10;;
13325;SDS011;6732;51.044;3.746;2023-01-15T00:44:00;10.33;;;2.17;;
13325;SDS011;6732;51.044;3.746;2023-01-15T00:46:26;7.13;;;2.10;;
13325;SDS011;6732;51.044;3.746;2023-01-15T00:48:52;8.10;;;1.73;;
13325;SDS011;6732;51.044;3.746;2023-01-15T00:51:18;5.77;;;1.87;;
13325;SDS011;6732;51.044;3.746;2023-01-15T00:53:43;8.17;;;1.80;;
13325;SDS011;6732;51.044;3.746;2023-01-15T00:56:09;7.00;;;1.97;;
13325;SDS011;6732;51.044;3.746;2023-01-15T00:58:35;9.47;;;1.93;;
13325;SDS011;6732;51.044;3.746;2023-01-15T01:01:01;6.90;;;1.90;;
13325;SDS011;6732;51.044;3.746;2023-01-15T01:03:27;8.33;;;2.30;;
13325;SDS011;6732;51.044;3.746;2023-01-15T01:05:58;8.13;;;2.03;;
13325;SDS011;6732;51.044;3.746;2023-01-15T01:08:28;6.80;;;1.80;;
13325;SDS011;6732;51.044;3.746;2023-01-15T01:11:04;9.60;;;2.13;;
13325;SDS011;6732;51.044;3.746;2023-01-15T01:13:32;10.17;;;2.20;;
13325;SDS011;6732;51.044;3.746;2023-01-15T01:15:59;5.77;;;1.87;;
13325;SDS011;6732;51.044;3.746;2023-01-15T01:18:25;7.40;;;2.13;;
13325;SDS011;6732;51.044;3.746;2023-01-15T01:20:52;5.47;;;1.97;;
13325;SDS011;6732;51.044;3.746;2023-01-15T01:23:18;5.33;;;1.70;;
13325;SDS011;6732;51.044;3.746;2023-01-15T01:25:44;7.50;;;2.10;;
13325;SDS011;6732;51.044;3.746;2023-01-15T01:28:10;5.73;;;1.90;;
13325;SDS011;6732;51.044;3.746;2023-01-15T01:30:37;8.67;;;2.00;;
13325;SDS011;6732;51.044;3.746;2023-01-15T01:33:03;7.97;;;2.20;;
13325;SDS011;6732;51.044;3.746;2023-01-15T01:35:29;6.73;;;2.17;;
13325;SDS011;6732;51.044;3.746;2023-01-15T01:37:55;7.73;;;2.20;;
13325;SDS011;6732;51.044;3.746;2023-01-15T01:40:21;8.67;;;2.73;;
13325;SDS011;6732;51.044;3.746;2023-01-15T01:42:47;8.67;;;2.60;;
13325;SDS011;6732;51.044;3.746;2023-01-15T01:45:27;8.77;;;2.87;;
13325;SDS011;6732;51.044;3.746;2023-01-15T01:47:58;8.97;;;3.20;;
13325;SDS011;6732;51.044;3.746;2023-01-15T01:50:28;9.40;;;3.10;;
13325;SDS011;6732;51.044;3.746;2023-01-15T01:52:58;11.77;;;3.23;;
13325;SDS011;6732;51.044;3.746;2023-01-15T01:55:26;10.20;;;2.63;;
13325;SDS011;6732;51.044;3.746;2023-01-15T01:57:54;7.60;;;2.53;;
13325;SDS011;6732;51.044;3.746;2023-01-15T02:00:24;10.10;;;2.10;;
13325;SDS011;6732;51.044;3.746;2023-01-15T02:02:50;8.87;;;2.53;;
13325;SDS011;6732;51.044;3.746;2023-01-15T02:05:22;7.23;;;2.13;;
13325;SDS011;6732;51.044;3.746;2023-01-15T02:07:56;11.27;;;2.10;;
13325;SDS011;6732;51.044;3.746;2023-01-15T02:10:22;10.93;;;2.87;;
13325;SDS011;6732;51.044;3.746;2023-01-15T02:12:53;9.80;;;2.40;;
13325;SDS011;6732;51.044;3.746;2023-01-15T02:15:42;7.87;;;2.00;;
13325;SDS011;6732;51.044;3.746;2023-01-15T02:20:57;13.13;;;2.40;;
13325;SDS011;6732;51.044;3.746;2023-01-15T02:23:43;9.80;;;2.10;;
13325;SDS011;6732;51.044;3.746;2023-01-15T02:29:03;11.73;;;2.20;;
13325;SDS011;6732;51.044;3.746;2023-01-15T02:34:04;12.90;;;2.70;;
13325;SDS011;6732;51.044;3.746;2023-01-15T02:36:37;10.70;;;2.73;;
13325;SDS011;6732;51.044;3.746;2023-01-15T02:39:08;9.43;;;1.93;;
13325;SDS011;6732;51.044;3.746;2023-01-15T02:41:38;11.73;;;2.07;;
13325;SDS011;6732;51.044;3.746;2023-01-15T02:44:09;7.87;;;2.17;;
13325;SDS011;6732;51.044;3.746;2023-01-15T02:46:38;11.77;;;2.33;;
13325;SDS011;6732;51.044;3.746;2023-01-15T02:49:06;5.60;;;1.90;;
13325;SDS011;6732;51.044;3.746;2023-01-15T02:51:38;10.90;;;2.07;;
13325;SDS011;6732;51.044;3.746;2023-01-15T02:54:13;7.67;;;1.77;;
13325;SDS011;6732;51.044;3.746;2023-01-15T02:56:42;7.80;;;2.03;;
13325;SDS011;6732;51.044;3.746;2023-01-15T02:59:11;11.00;;;1.93;;
13325;SDS011;6732;51.044;3.746;2023-01-15T03:01:44;9.43;;;2.73;;
13325;SDS011;6732;51.044;3.746;2023-01-15T03:04:16;7.47;;;1.97;;
13325;SDS011;6732;51.044;3.746;2023-01-15T03:09:30;6.03;;;2.00;;
13325;SDS011;6732;51.044;3.746;2023-01-15T03:12:04;6.83;;;1.87;;
13325;SDS011;6732;51.044;3.746;2023-01-15T03:15:08;11.20;;;2.00;;
13325;SDS011;6732;51.044;3.746;2023-01-15T03:17:57;7.83;;;2.13;;
13325;SDS011;6732;51.044;3.746;2023-01-15T03:20:28;9.83;;;2.10;;
13325;SDS011;6732;51.044;3.746;2023-01-15T03:22:55;7.23;;;2.27;;
13325;SDS011;6732;51.044;3.746;2023-01-15T03:25:33;10.80;;;1.90;;
13325;SDS011;6732;51.044;3.746;2023-01-15T03:28:02;8.80;;;2.47;;
13325;SDS011;6732;51.044;3.746;2023-01-15T03:30:29;7.67;;;1.90;;
13325;SDS011;6732;51.044;3.746;2023-01-15T03:32:55;7.57;;;2.47;;
13325;SDS011;6732;51.044;3.746;2023-01-15T03:38:06;8.43;;;2.07;;
13325;SDS011;6732;51.044;3.746;2023-01-15T03:40:32;6.50;;;1.87;;
13325;SDS011;6732;51.044;3.746;2023-01-15T03:43:04;8.10;;;2.30;;
13325;SDS011;6732;51.044;3.746;2023-01-15T03:45:53;8.50;;;1.90;;
13325;SDS011;6732;51.044;3.746;2023-01-15T03:48:38;7.97;;;2.10;;
13325;SDS011;6732;51.044;3.746;2023-01-15T03:51:29;5.97;;;1.90;;
13325;SDS011;6732;51.044;3.746;2023-01-15T03:54:16;7.97;;;2.37;;
13325;SDS011;6732;51.044;3.746;2023-01-15T03:56:52;7.53;;;2.33;;
13325;SDS011;6732;51.044;3.746;2023-01-15T04:00:12;8.47;;;2.20;;
13325;SDS011;6732;51.044;3.746;2023-01-15T04:02:21;11.93;;;2.20;;
13325;SDS011;6732;51.044;3.746;2023-01-15T04:04:48;5.90;;;1.87;;
13325;SDS011;6732;51.044;3.746;2023-01-15T04:07:16;6.77;;;2.10;;
13325;SDS011;6732;51.044;3.746;2023-01-15T04:09:42;7.93;;;1.93;;
13325;SDS011;6732;51.044;3.746;2023-01-15T04:12:08;6.70;;;1.83;;
13325;SDS011;6732;51.044;3.746;2023-01-15T04:14:34;6.57;;;2.10;;
13325;SDS011;6732;51.044;3.746;2023-01-15T04:17:00;6.70;;;2.10;;
13325;SDS011;6732;51.044;3.746;2023-01-15T04:19:26;8.87;;;1.93;;
13325;SDS011;6732;51.044;3.746;2023-01-15T04:21:52;10.73;;;2.00;;
13325;SDS011;6732;51.044;3.746;2023-01-15T04:24:18;9.40;;;2.40;;
13325;SDS011;6732;51.044;3.746;2023-01-15T04:26:44;7.37;;;2.00;;
13325;SDS011;6732;51.044;3.746;2023-01-15T04:29:10;10.93;;;2.30;;
13325;SDS011;6732;51.044;3.746;2023-01-15T04:31:35;10.90;;;1.90;;
13325;SDS011;6732;51.044;3.746;2023-01-15T04:34:02;7.70;;;2.07;;
13325;SDS011;6732;51.044;3.746;2023-01-15T04:36:28;8.43;;;2.00;;
13325;SDS011;6732;51.044;3.746;2023-01-15T04:38:55;10.37;;;1.80;;
13325;SDS011;6732;51.044;3.746;2023-01-15T04:41:22;8.80;;;1.77;;
13325;SDS011;6732;51.044;3.746;2023-01-15T04:44:06;6.47;;;1.90;;
13325;SDS011;6732;51.044;3.746;2023-01-15T04:46:33;6.87;;;1.90;;
13325;SDS011;6732;51.044;3.746;2023-01-15T04:49:01;10.83;;;2.40;;
13325;SDS011;6732;51.044;3.746;2023-01-15T04:51:28;8.10;;;2.37;;
13325;SDS011;6732;51.044;3.746;2023-01-15T04:53:54;7.57;;;1.90;;
13325;SDS011;6732;51.044;3.746;2023-01-15T04:56:20;9.10;;;1.90;;
13325;SDS011;6732;51.044;3.746;2023-01-15T04:58:46;7.57;;;2.07;;
13325;SDS011;6732;51.044;3.746;2023-01-15T05:01:12;10.43;;;2.73;;
13325;SDS011;6732;51.044;3.746;2023-01-15T05:03:40;8.90;;;2.00;;
13325;SDS011;6732;51.044;3.746;2023-01-15T05:06:06;9.37;;;2.20;;
13325;SDS011;6732;51.044;3.746;2023-01-15T05:08:33;6.80;;;2.17;;
13325;SDS011;6732;51.044;3.746;2023-01-15T05:11:03;7.73;;;2.00;;
13325;SDS011;6732;51.044;3.746;2023-01-15T05:13:30;9.80;;;1.80;;
13325;SDS011;6732;51.044;3.746;2023-01-15T05:16:14;6.63;;;1.87;;
13325;SDS011;6732;51.044;3.746;2023-01-15T05:18:42;6.47;;;1.90;;
13325;SDS011;6732;51.044;3.746;2023-01-15T05:21:12;6.10;;;1.93;;
13325;SDS011;6732;51.044;3.746;2023-01-15T05:23:40;6.47;;;1.73;;
13325;SDS011;6732;51.044;3.746;2023-01-15T05:26:06;6.07;;;1.47;;
13325;SDS011;6732;51.044;3.746;2023-01-15T05:28:32;7.17;;;1.80;;
13325;SDS011;6732;51.044;3.746;2023-01-15T05:30:58;6.63;;;1.57;;
13325;SDS011;6732;51.044;3.746;2023-01-15T05:33:31;5.57;;;1.53;;
13325;SDS011;6732;51.044;3.746;2023-01-15T05:36:00;9.03;;;1.60;;
13325;SDS011;6732;51.044;3.746;2023-01-15T05:38:30;5.70;;;1.40;;
13325;SDS011;6732;51.044;3.746;2023-01-15T05:40:56;6.57;;;1.63;;
13325;SDS011;6732;51.044;3.746;2023-01-15T05:43:22;8.40;;;1.70;;
13325;SDS011;6732;51.044;3.746;2023-01-15T05:45:48;7.23;;;1.90;;
13325;SDS011;6732;51.044;3.746;2023-01-15T05:48:14;6.13;;;1.50;;
13325;SDS011;6732;51.044;3.746;2023-01-15T05:50:40;4.70;;;1.60;;
13325;SDS011;6732;51.044;3.746;2023-01-15T05:53:06;7.13;;;1.90;;
13325;SDS011;6732;51.044;3.746;2023-01-15T05:55:32;4.07;;;1.40;;
13325;SDS011;6732;51.044;3.746;2023-01-15T05:57:57;4.93;;;1.37;;
13325;SDS011;6732;51.044;3.746;2023-01-15T06:00:23;5.60;;;1.23;;
13325;SDS011;6732;51.044;3.746;2023-01-15T06:02:50;6.97;;;1.53;;
13325;SDS011;6732;51.044;3.746;2023-01-15T06:05:16;3.27;;;1.47;;
13325;SDS011;6732;51.044;3.746;2023-01-15T06:07:48;4.20;;;1.43;;
13325;SDS011;6732;51.044;3.746;2023-01-15T06:10:17;5.97;;;1.80;;
13325;SDS011;6732;51.044;3.746;2023-01-15T06:12:43;2.90;;;1.23;;
13325;SDS011;6732;51.044;3.746;2023-01-15T06:15:10;5.30;;;1.63;;
13325;SDS011;6732;51.044;3.746;2023-01-15T06:17:36;4.87;;;1.30;;
13325;SDS011;6732;51.044;3.746;2023-01-15T06:20:02;7.80;;;1.70;;
13325;SDS011;6732;51.044;3.746;2023-01-15T06:22:29;5.50;;;1.87;;
13325;SDS011;6732;51.044;3.746;2023-01-15T06:24:55;5.03;;;1.50;;
13325;SDS011;6732;51.044;3.746;2023-01-15T06:27:21;4.73;;;1.53;;
13325;SDS011;6732;51.044;3.746;2023-01-15T06:29:47;5.37;;;1.80;;
13325;SDS011;6732;51.044;3.746;2023-01-15T06:32:13;4.87;;;1.57;;
13325;SDS011;6732;51.044;3.746;2023-01-15T06:34:39;7.03;;;2.00;;
13325;SDS011;6732;51.044;3.746;2023-01-15T06:37:07;5.70;;;1.67;;
13325;SDS011;6732;51.044;3.746;2023-01-15T06:39:33;8.03;;;2.17;;
13325;SDS011;6732;51.044;3.746;2023-01-15T06:41:59;7.63;;;2.00;;
13325;SDS011;6732;51.044;3.746;2023-01-15T06:44:44;6.83;;;2.10;;
13325;SDS011;6732;51.044;3.746;2023-01-15T06:47:28;7.30;;;1.70;;
13325;SDS011;6732;51.044;3.746;2023-01-15T06:49:55;7.90;;;1.70;;
13325;SDS011;6732;51.044;3.746;2023-01-15T06:52:23;8.57;;;1.83;;
13325;SDS011;6732;51.044;3.746;2023-01-15T06:54:50;5.70;;;1.90;;
13325;SDS011;6732;51.044;3.746;2023-01-15T06:57:16;5.93;;;1.57;;
13325;SDS011;6732;51.044;3.746;2023-01-15T06:59:45;8.40;;;1.90;;
13325;SDS011;6732;51.044;3.746;2023-01-15T07:02:12;4.23;;;1.53;;
13325;SDS011;6732;51.044;3.746;2023-01-15T07:04:39;6.40;;;1.80;;
13325;SDS011;6732;51.044;3.746;2023-01-15T07:07:04;7.13;;;1.67;;
13325;SDS011;6732;51.044;3.746;2023-01-15T07:09:30;7.43;;;2.07;;
13325;SDS011;6732;51.044;3.746;2023-01-15T07:11:57;8.70;;;2.30;;
13325;SDS011;6732;51.044;3.746;2023-01-15T07:14:24;7.37;;;1.73;;
13325;SDS011;6732;51.044;3.746;2023-01-15T07:16:52;9.47;;;1.87;;
13325;SDS011;6732;51.044;3.746;2023-01-15T07:19:18;5.00;;;1.67;;
13325;SDS011;6732;51.044;3.746;2023-01-15T07:21:44;8.57;;;2.20;;
13325;SDS011;6732;51.044;3.746;2023-01-15T07:24:11;6.50;;;1.97;;
13325;SDS011;6732;51.044;3.746;2023-01-15T07:26:37;6.70;;;4.70;;
13325;SDS011;6732;51.044;3.746;2023-01-15T07:29:04;10.03;;;2.37;;
13325;SDS011;6732;51.044;3.746;2023-01-15T07:31:30;6.33;;;1.97;;
13325;SDS011;6732;51.044;3.746;2023-01-15T07:33:56;5.67;;;1.87;;
13325;SDS011;6732;51.044;3.746;2023-01-15T07:36:22;7.10;;;1.87;;
13325;SDS011;6732;51.044;3.746;2023-01-15T07:38:49;5.13;;;1.70;;
13325;SDS011;6732;51.044;3.746;2023-01-15T07:41:14;6.73;;;1.40;;
13325;SDS011;6732;51.044;3.746;2023-01-15T07:43:59;6.80;;;1.67;;
13325;SDS011;6732;51.044;3.746;2023-01-15T07:46:43;8.00;;;2.10;;
13325;SDS011;6732;51.044;3.746;2023-01-15T07:49:28;6.57;;;1.70;;
13325;SDS011;6732;51.044;3.746;2023-01-15T07:52:13;6.93;;;1.67;;
13325;SDS011;6732;51.044;3.746;2023-01-15T07:54:44;8.30;;;1.90;;
13325;SDS011;6732;51.044;3.746;2023-01-15T07:57:12;7.53;;;1.70;;
13325;SDS011;6732;51.044;3.746;2023-01-15T07:59:40;7.67;;;2.10;;
13325;SDS011;6732;51.044;3.746;2023-01-15T08:02:09;8.43;;;1.93;;
13325;SDS011;6732;51.044;3.746;2023-01-15T08:04:47;6.50;;;2.13;;
13325;SDS011;6732;51.044;3.746;2023-01-15T08:07:16;7.10;;;1.93;;
13325;SDS011;6732;51.044;3.746;2023-01-15T08:09:52;7.77;;;2.10;;
13325;SDS011;6732;51.044;3.746;2023-01-15T08:12:56;7.43;;;2.20;;
13325;SDS011;6732;51.044;3.746;2023-01-15T08:15:54;9.03;;;2.60;;
13325;SDS011;6732;51.044;3.746;2023-01-15T08:18:32;5.67;;;2.20;;
13325;SDS011;6732;51.044;3.746;2023-01-15T08:21:12;5.97;;;2.33;;
13325;SDS011;6732;51.044;3.746;2023-01-15T08:23:48;8.30;;;1.80;;
13325;SDS011;6732;51.044;3.746;2023-01-15T08:26:33;8.17;;;2.27;;
13325;SDS011;6732;51.044;3.746;2023-01-15T08:29:06;8.90;;;2.00;;
13325;SDS011;6732;51.044;3.746;2023-01-15T08:31:44;6.63;;;1.93;;
13325;SDS011;6732;51.044;3.746;2023-01-15T08:34:15;6.00;;;2.10;;
13325;SDS011;6732;51.044;3.746;2023-01-15T08:36:45;9.30;;;2.00;;
13325;SDS011;6732;51.044;3.746;2023-01-15T08:39:22;9.87;;;2.13;;
13325;SDS011;6732;51.044;3.746;2023-01-15T08:42:03;6.80;;;2.03;;
13325;SDS011;6732;51.044;3.746;2023-01-15T08:44:43;8.30;;;2.13;;
13325;SDS011;6732;51.044;3.746;2023-01-15T08:47:09;7.10;;;2.20;;
13325;SDS011;6732;51.044;3.746;2023-01-15T08:49:35;6.97;;;1.80;;
13325;SDS011;6732;51.044;3.746;2023-01-15T08:52:01;11.17;;;2.30;;
13325;SDS011;6732;51.044;3.746;2023-01-15T08:54:27;10.10;;;2.27;;
13325;SDS011;6732;51.044;3.746;2023-01-15T08:56:54;13.83;;;2.80;;
13325;SDS011;6732;51.044;3.746;2023-01-15T08:59:20;6.37;;;1.80;;
13325;SDS011;6732;51.044;3.746;2023-01-15T09:01:46;6.53;;;2.13;;
13325;SDS011;6732;51.044;3.746;2023-01-15T09:04:12;7.83;;;2.10;;
13325;SDS011;6732;51.044;3.746;2023-01-15T09:06:40;7.10;;;2.00;;
13325;SDS011;6732;51.044;3.746;2023-01-15T09:09:06;10.07;;;1.93;;
13325;SDS011;6732;51.044;3.746;2023-01-15T09:11:32;7.27;;;2.50;;
13325;SDS011;6732;51.044;3.746;2023-01-15T09:13:59;7.17;;;2.43;;
13325;SDS011;6732;51.044;3.746;2023-01-15T09:16:25;12.30;;;2.40;;
13325;SDS011;6732;51.044;3.746;2023-01-15T09:18:52;7.83;;;2.00;;
13325;SDS011;6732;51.044;3.746;2023-01-15T09:21:18;9.50;;;2.40;;
13325;SDS011;6732;51.044;3.746;2023-01-15T09:23:45;8.10;;;2.13;;
13325;SDS011;6732;51.044;3.746;2023-01-15T09:26:29;8.83;;;2.47;;
13325;SDS011;6732;51.044;3.746;2023-01-15T09:29:04;11.20;;;2.20;;
13325;SDS011;6732;51.044;3.746;2023-01-15T09:31:30;8.77;;;1.93;;
13325;SDS011;6732;51.044;3.746;2023-01-15T09:33:56;6.50;;;1.90;;
13325;SDS011;6732;51.044;3.746;2023-01-15T09:36:24;5.20;;;1.83;;
13325;SDS011;6732;51.044;3.746;2023-01-15T09:38:58;6.27;;;1.73;;
13325;SDS011;6732;51.044;3.746;2023-01-15T09:41:29;4.53;;;1.50;;
13325;SDS011;6732;51.044;3.746;2023-01-15T09:44:25;4.43;;;1.60;;
13325;SDS011;6732;51.044;3.746;2023-01-15T09:47:01;3.93;;;1.43;;
13325;SDS011;6732;51.044;3.746;2023-01-15T09:52:29;4.17;;;1.27;;
13325;SDS011;6732;51.044;3.746;2023-01-15T09:55:24;2.87;;;1.13;;
13325;SDS011;6732;51.044;3.746;2023-01-15T09:58:03;2.80;;;1.27;;
13325;SDS011;6732;51.044;3.746;2023-01-15T10:00:34;2.83;;;1.00;;
13325;SDS011;6732;51.044;3.746;2023-01-15T10:03:06;2.20;;;0.93;;
13325;SDS011;6732;51.044;3.746;2023-01-15T10:11:18;2.37;;;1.00;;
13325;SDS011;6732;51.044;3.746;2023-01-15T10:14:14;2.60;;;1.10;;
13325;SDS011;6732;51.044;3.746;2023-01-15T10:16:53;3.33;;;1.33;;
13325;SDS011;6732;51.044;3.746;2023-01-15T10:19:19;3.33;;;1.73;;
13325;SDS011;6732;51.044;3.746;2023-01-15T10:24:21;2.33;;;1.10;;
13325;SDS011;6732;51.044;3.746;2023-01-15T10:27:00;3.53;;;1.50;;
13325;SDS011;6732;51.044;3.746;2023-01-15T10:29:48;2.70;;;1.00;;
13325;SDS011;6732;51.044;3.746;2023-01-15T10:43:13;4.87;;;1.57;;
13325;SDS011;6732;51.044;3.746;2023-01-15T10:45:59;3.23;;;1.50;;
13325;SDS011;6732;51.044;3.746;2023-01-15T10:48:39;5.97;;;1.80;;
13325;SDS011;6732;51.044;3.746;2023-01-15T10:51:12;5.20;;;1.43;;
13325;SDS011;6732;51.044;3.746;2023-01-15T10:53:55;5.17;;;1.50;;
13325;SDS011;6732;51.044;3.746;2023-01-15T11:04:50;6.17;;;1.37;;
13325;SDS011;6732;51.044;3.746;2023-01-15T11:07:16;5.07;;;1.60;;
13325;SDS011;6732;51.044;3.746;2023-01-15T11:09:42;2.93;;;1.33;;
13325;SDS011;6732;51.044;3.746;2023-01-15T11:12:25;6.57;;;1.30;;
13325;SDS011;6732;51.044;3.746;2023-01-15T11:15:15;4.70;;;1.60;;
13325;SDS011;6732;51.044;3.746;2023-01-15T11:18:10;3.97;;;1.73;;
13325;SDS011;6732;51.044;3.746;2023-01-15T11:21:09;4.40;;;1.20;;
13325;SDS011;6732;51.044;3.746;2023-01-15T11:23:40;6.20;;;1.70;;
13325;SDS011;6732;51.044;3.746;2023-01-15T11:26:07;5.70;;;1.80;;
13325;SDS011;6732;51.044;3.746;2023-01-15T11:28:36;5.27;;;1.70;;
13325;SDS011;6732;51.044;3.746;2023-01-15T11:31:05;5.87;;;1.70;;
13325;SDS011;6732;51.044;3.746;2023-01-15T11:33:32;2.67;;;1.30;;
13325;SDS011;6732;51.044;3.746;2023-01-15T11:36:00;3.47;;;1.10;;
13325;SDS011;6732;51.044;3.746;2023-01-15T11:38:29;4.17;;;1.30;;
13325;SDS011;6732;51.044;3.746;2023-01-15T11:41:15;5.57;;;1.20;;
13325;SDS011;6732;51.044;3.746;2023-01-15T11:43:52;4.53;;;1.20;;
13325;SDS011;6732;51.044;3.746;2023-01-15T11:46:38;3.53;;;1.50;;
13325;SDS011;6732;51.044;3.746;2023-01-15T11:49:22;4.53;;;1.63;;
13325;SDS011;6732;51.044;3.746;2023-01-15T11:52:12;3.23;;;1.30;;
13325;SDS011;6732;51.044;3.746;2023-01-15T11:54:43;3.67;;;1.20;;
13325;SDS011;6732;51.044;3.746;2023-01-15T11:57:21;3.87;;;1.40;;
13325;SDS011;6732;51.044;3.746;2023-01-15T11:59:58;4.07;;;1.30;;
13325;SDS011;6732;51.044;3.746;2023-01-15T12:02:30;4.10;;;1.30;;
13325;SDS011;6732;51.044;3.746;2023-01-15T12:05:01;9.17;;;1.63;;
13325;SDS011;6732;51.044;3.746;2023-01-15T12:07:29;5.70;;;1.20;;
13325;SDS011;6732;51.044;3.746;2023-01-15T12:10:05;4.80;;;1.40;;
13325;SDS011;6732;51.044;3.746;2023-01-15T12:15:51;15.97;;;11.60;;
13325;SDS011;6732;51.044;3.746;2023-01-15T12:18:53;4.87;;;2.27;;
13325;SDS011;6732;51.044;3.746;2023-01-15T12:21:36;2.47;;;1.50;;
13325;SDS011;6732;51.044;3.746;2023-01-15T12:29:50;4.83;;;1.53;;
13325;SDS011;6732;51.044;3.746;2023-01-15T12:32:26;5.00;;;1.60;;
13325;SDS011;6732;51.044;3.746;2023-01-15T12:35:00;4.23;;;1.77;;
13325;SDS011;6732;51.044;3.746;2023-01-15T12:37:43;5.10;;;1.43;;
13325;SDS011;6732;51.044;3.746;2023-01-15T12:40:27;3.37;;;1.60;;
13325;SDS011;6732;51.044;3.746;2023-01-15T12:43:02;5.57;;;1.50;;
13325;SDS011;6732;51.044;3.746;2023-01-15T12:45:48;7.03;;;1.60;;
13325;SDS011;6732;51.044;3.746;2023-01-15T12:48:19;6.00;;;1.57;;
13325;SDS011;6732;51.044;3.746;2023-01-15T12:50:55;4.73;;;1.60;;
13325;SDS011;6732;51.044;3.746;2023-01-15T12:58:48;2.97;;;1.37;;
13325;SDS011;6732;51.044;3.746;2023-01-15T13:04:53;7.33;;;1.60;;
13325;SDS011;6732;51.044;3.746;2023-01-15T13:07:38;5.07;;;1.67;;
13325;SDS011;6732;51.044;3.746;2023-01-15T13:10:27;7.47;;;1.67;;
13325;SDS011;6732;51.044;3.746;2023-01-15T13:13:13;4.37;;;1.30;;
13325;SDS011;6732;51.044;3.746;2023-01-15T13:19:35;5.20;;;1.30;;
13325;SDS011;6732;51.044;3.746;2023-01-15T13:22:25;3.00;;;1.00;;
13325;SDS011;6732;51.044;3.746;2023-01-15T13:36:16;3.87;;;1.20;;
13325;SDS011;6732;51.044;3.746;2023-01-15T13:38:59;3.67;;;1.20;;
13325;SDS011;6732;51.044;3.746;2023-01-15T13:41:28;2.40;;;1.00;;
13325;SDS011;6732;51.044;3.746;2023-01-15T13:44:19;3.10;;;0.80;;
13325;SDS011;6732;51.044;3.746;2023-01-15T13:46:56;2.63;;;1.00;;
13325;SDS011;6732;51.044;3.746;2023-01-15T13:49:50;2.47;;;0.97;;
13325;SDS011;6732;51.044;3.746;2023-01-15T13:52:25;0.93;;;0.80;;
13325;SDS011;6732;51.044;3.746;2023-01-15T13:54:56;2.90;;;1.43;;
13325;SDS011;6732;51.044;3.746;2023-01-15T13:57:31;2.57;;;1.10;;
13325;SDS011;6732;51.044;3.746;2023-01-15T14:00:06;1.27;;;0.93;;
13325;SDS011;6732;51.044;3.746;2023-01-15T14:02:52;3.50;;;1.23;;
13325;SDS011;6732;51.044;3.746;2023-01-15T14:05:28;2.97;;;1.20;;
13325;SDS011;6732;51.044;3.746;2023-01-15T14:07:56;3.23;;;1.50;;
13325;SDS011;6732;51.044;3.746;2023-01-15T14:10:33;4.00;;;1.50;;
13325;SDS011;6732;51.044;3.746;2023-01-15T14:21:54;4.83;;;1.60;;
13325;SDS011;6732;51.044;3.746;2023-01-15T14:36:13;2.40;;;1.40;;
13325;SDS011;6732;51.044;3.746;2023-01-15T14:38:49;3.27;;;1.43;;
13325;SDS011;6732;51.044;3.746;2023-01-15T14:41:24;3.20;;;1.37;;
13325;SDS011;6732;51.044;3.746;2023-01-15T14:44:28;3.77;;;1.30;;
13325;SDS011;6732;51.044;3.746;2023-01-15T14:46:57;2.97;;;1.20;;
13325;SDS011;6732;51.044;3.746;2023-01-15T14:49:27;5.13;;;1.20;;
13325;SDS011;6732;51.044;3.746;2023-01-15T14:51:54;2.77;;;1.30;;
13325;SDS011;6732;51.044;3.746;2023-01-15T14:54:21;2.57;;;1.10;;
13325;SDS011;6732;51.044;3.746;2023-01-15T14:56:55;2.37;;;1.10;;
13325;SDS011;6732;51.044;3.746;2023-01-15T14:59:25;2.43;;;1.30;;
13325;SDS011;6732;51.044;3.746;2023-01-15T15:02:13;2.77;;;1.30;;
13325;SDS011;6732;51.044;3.746;2023-01-15T15:04:52;3.20;;;1.20;;
13325;SDS011;6732;51.044;3.746;2023-01-15T15:07:24;3.27;;;1.40;;
13325;SDS011;6732;51.044;3.746;2023-01-15T15:12:51;3.20;;;1.43;;
13325;SDS011;6732;51.044;3.746;2023-01-15T15:26:19;3.13;;;1.20;;
13325;SDS011;6732;51.044;3.746;2023-01-15T15:31:26;1.87;;;1.20;;
13325;SDS011;6732;51.044;3.746;2023-01-15T15:33:55;2.43;;;1.00;;
13325;SDS011;6732;51.044;3.746;2023-01-15T15:36:23;2.33;;;1.20;;
13325;SDS011;6732;51.044;3.746;2023-01-15T15:38:53;2.87;;;1.17;;
13325;SDS011;6732;51.044;3.746;2023-01-15T15:41:26;1.83;;;1.20;;
13325;SDS011;6732;51.044;3.746;2023-01-15T15:44:39;1.53;;;1.03;;
13325;SDS011;6732;51.044;3.746;2023-01-15T15:47:36;3.07;;;1.20;;
13325;SDS011;6732;51.044;3.746;2023-01-15T15:50:33;1.77;;;1.00;;
13325;SDS011;6732;51.044;3.746;2023-01-15T15:53:00;3.67;;;1.30;;
13325;SDS011;6732;51.044;3.746;2023-01-15T15:55:35;2.90;;;1.20;;
13325;SDS011;6732;51.044;3.746;2023-01-15T15:58:06;2.17;;;1.23;;
13325;SDS011;6732;51.044;3.746;2023-01-15T16:00:37;4.63;;;1.20;;
13325;SDS011;6732;51.044;3.746;2023-01-15T16:03:19;2.50;;;1.07;;
13325;SDS011;6732;51.044;3.746;2023-01-15T16:05:58;2.67;;;1.10;;
13325;SDS011;6732;51.044;3.746;2023-01-15T16:08:31;5.63;;;2.10;;
13325;SDS011;6732;51.044;3.746;2023-01-15T16:10:59;1.73;;;0.90;;
13325;SDS011;6732;51.044;3.746;2023-01-15T16:13:35;2.43;;;1.50;;
13325;SDS011;6732;51.044;3.746;2023-01-15T16:16:07;2.33;;;1.10;;
13325;SDS011;6732;51.044;3.746;2023-01-15T16:18:35;2.17;;;1.23;;
13325;SDS011;6732;51.044;3.746;2023-01-15T16:21:08;2.37;;;0.90;;
13325;SDS011;6732;51.044;3.746;2023-01-15T16:23:35;2.80;;;1.10;;
13325;SDS011;6732;51.044;3.746;2023-01-15T16:28:35;1.07;;;0.90;;
13325;SDS011;6732;51.044;3.746;2023-01-15T16:31:05;1.90;;;1.00;;
13325;SDS011;6732;51.044;3.746;2023-01-15T16:33:32;4.73;;;1.30;;
13325;SDS011;6732;51.044;3.746;2023-01-15T16:36:00;3.47;;;1.10;;
13325;SDS011;6732;51.044;3.746;2023-01-15T16:38:40;2.53;;;1.20;;
13325;SDS011;6732;51.044;3.746;2023-01-15T16:41:19;2.27;;;1.30;;
13325;SDS011;6732;51.044;3.746;2023-01-15T16:43:56;3.17;;;1.17;;
13325;SDS011;6732;51.044;3.746;2023-01-15T16:46:26;2.70;;;1.40;;
13325;SDS011;6732;51.044;3.746;2023-01-15T16:51:46;3.37;;;1.63;;
13325;SDS011;6732;51.044;3.746;2023-01-15T16:56:54;2.73;;;1.53;;
13325;SDS011;6732;51.044;3.746;2023-01-15T17:02:02;4.10;;;1.67;;
13325;SDS011;6732;51.044;3.746;2023-01-15T17:04:37;6.17;;;2.13;;
13325;SDS011;6732;51.044;3.746;2023-01-15T17:07:06;4.70;;;1.70;;
13325;SDS011;6732;51.044;3.746;2023-01-15T17:09:44;5.90;;;1.73;;
13325;SDS011;6732;51.044;3.746;2023-01-15T17:12:21;4.30;;;1.80;;
13325;SDS011;6732;51.044;3.746;2023-01-15T17:14:58;4.73;;;1.70;;
13325;SDS011;6732;51.044;3.746;2023-01-15T17:17:51;3.13;;;2.20;;
13325;SDS011;6732;51.044;3.746;2023-01-15T17:20:20;3.43;;;1.70;;
13325;SDS011;6732;51.044;3.746;2023-01-15T17:22:51;4.13;;;1.80;;
13325;SDS011;6732;51.044;3.746;2023-01-15T17:27:56;4.17;;;1.93;;
13325;SDS011;6732;51.044;3.746;2023-01-15T17:30:24;4.73;;;1.83;;
13325;SDS011;6732;51.044;3.746;2023-01-15T17:33:02;3.63;;;2.20;;
13325;SDS011;6732;51.044;3.746;2023-01-15T17:35:30;5.70;;;2.07;;
13325;SDS011;6732;51.044;3.746;2023-01-15T17:37:58;4.93;;;2.23;;
13325;SDS011;6732;51.044;3.746;2023-01-15T17:40:24;4.10;;;2.07;;